Startpagina
METAR-TAF:

METAR-TAF

Vliegvelden :

Fairbanks, Alaska, Verenigde Staten

breedte: 64-48-14N, lengte: 147-52-34W, hoogte: 132 m

Actueel weer

Dit bericht is 31 minuten geleden gemaakt, om 03:53 UTC
Weinig wind
Temperatuur -6°C
Vochtigheid 93%
Druk 1001 hPa
Zicht: 16.1 km
Weinig wolken op 10000 ft
Verspreide wolken op 20000 ft

METAR: PAFA 140353Z 00000KT 10SM FEW100 SCT200 M06/M07 A2955 RMK AO2 SLP015 T10561072 $

Tijdstip: 19:24 (04:24 UTC)

Verwachting

Dit bericht is 4 uur en het 52 minuten geleden gemaakt, om 23:32 UTC
Verwachting geldig van 14 om 00 UTC tot 15 om 06 UTC
Wind 4 kt uit variabele richting
Zicht: 10 km
Weinig wolken op 7000 ft
Verspreide wolken op 10000 ft
Gebroken wolken op 17000 ft

TAF: PAFA 132332Z 1400/1506 VRB04KT P6SM FEW070 SCT100 BKN170

Waarnemingen en weersverwachtingen van meer dan 4000 vliegvelden (METAR en TAF).

De beschikbare stations zijn de gele en rode punten op de kaart.

Ga met uw muis naar het station om de naam te zien.

Klik dan om waarnemingen en weersverwachtingen te zien.

kaart wijzigen: klik op de groene knoppen met een zwart kruis om in te zoomen, op de groene knop met een streepje om uit te zoomen of op de groene pijlen voor aangrenzende kaarten.


METAR-TAF: